createdAt,value
2023-10-29T00:02:20.850Z,11.84
2023-10-29T00:04:48.751Z,11.84
2023-10-29T00:07:16.525Z,11.82
2023-10-29T00:09:44.136Z,11.85
2023-10-29T00:12:11.742Z,11.87
2023-10-29T00:14:39.321Z,11.91
2023-10-29T00:17:09.081Z,11.92
2023-10-29T00:19:36.753Z,11.95
2023-10-29T00:22:04.359Z,12.00
2023-10-29T00:24:32.025Z,12.00
2023-10-29T00:26:59.867Z,12.02
2023-10-29T00:29:28.163Z,12.06
2023-10-29T00:31:55.824Z,12.06
2023-10-29T00:34:24.821Z,12.04
2023-10-29T00:36:52.437Z,12.08
2023-10-29T00:39:20.230Z,12.09
2023-10-29T00:41:47.869Z,12.07
2023-10-29T00:44:15.491Z,12.07
2023-10-29T00:46:43.347Z,12.07
2023-10-29T00:49:11.428Z,12.07
2023-10-29T00:51:40.418Z,12.11
2023-10-29T00:54:08.446Z,12.10
2023-10-29T00:56:36.294Z,12.14
2023-10-29T00:59:04.014Z,12.12
2023-10-29T01:01:31.966Z,12.15
2023-10-29T01:04:00.699Z,12.08
2023-10-29T01:06:28.686Z,12.09
2023-10-29T01:08:57.896Z,12.09
2023-10-29T01:11:25.611Z,12.09
2023-10-29T01:13:53.298Z,12.13
2023-10-29T01:16:20.955Z,12.16
2023-10-29T01:18:48.610Z,12.13
2023-10-29T01:21:17.270Z,12.15
2023-10-29T01:23:44.971Z,12.16
2023-10-29T01:26:13.969Z,12.17
2023-10-29T01:28:41.538Z,12.22
2023-10-29T01:31:09.373Z,12.25
2023-10-29T01:33:37.066Z,12.28
2023-10-29T01:36:04.938Z,12.31
2023-10-29T01:38:32.713Z,12.32
2023-10-29T01:41:00.447Z,12.34
2023-10-29T01:43:29.406Z,12.36
2023-10-29T01:45:57.186Z,12.35
2023-10-29T01:48:25.447Z,12.33
2023-10-29T01:50:53.173Z,12.35
2023-10-29T01:53:21.391Z,12.33
2023-10-29T01:55:49.033Z,12.32
2023-10-29T01:58:16.648Z,12.31
2023-10-29T02:00:45.540Z,12.33
2023-10-29T02:03:13.585Z,12.35
2023-10-29T02:05:41.417Z,12.34
2023-10-29T02:08:09.123Z,12.35
2023-10-29T02:10:36.728Z,12.36
2023-10-29T02:13:04.425Z,12.35
2023-10-29T02:15:32.114Z,12.37
2023-10-29T02:18:01.197Z,12.37
2023-10-29T02:20:28.980Z,12.42
2023-10-29T02:22:58.009Z,12.41
2023-10-29T02:25:25.674Z,12.40
2023-10-29T02:27:53.285Z,12.41
2023-10-29T02:30:20.960Z,12.45
2023-10-29T02:32:48.620Z,12.56
2023-10-29T02:35:16.436Z,12.57
2023-10-29T02:37:44.251Z,12.59
2023-10-29T02:40:13.881Z,12.40
2023-10-29T02:42:41.467Z,12.71
2023-10-29T02:45:09.668Z,12.74
2023-10-29T02:47:37.554Z,12.74
2023-10-29T02:50:06.018Z,12.81
2023-10-29T02:52:33.737Z,12.62
2023-10-29T02:55:01.327Z,11.76
2023-10-29T02:57:31.661Z,11.51
2023-10-29T03:00:01.415Z,11.24
2023-10-29T03:02:29.145Z,11.04
2023-10-29T03:04:56.833Z,11.04
2023-10-29T03:07:24.427Z,11.00
2023-10-29T03:09:52.803Z,10.90
2023-10-29T03:12:20.700Z,10.90
2023-10-29T03:14:49.943Z,10.80
2023-10-29T03:17:17.765Z,10.83
2023-10-29T03:19:45.649Z,10.74
2023-10-29T03:22:13.354Z,10.75
2023-10-29T03:24:40.967Z,10.78
2023-10-29T03:27:09.209Z,10.85
2023-10-29T03:29:36.774Z,10.86
2023-10-29T03:32:06.033Z,10.86
2023-10-29T03:34:33.614Z,11.08
2023-10-29T03:37:01.361Z,10.94
2023-10-29T03:39:30.682Z,10.99
2023-10-29T03:41:58.378Z,11.07
2023-10-29T03:44:26.049Z,11.16
2023-10-29T03:46:53.776Z,11.19
2023-10-29T03:49:22.755Z,11.25
2023-10-29T03:51:50.335Z,11.30
2023-10-29T03:54:17.939Z,11.38
2023-10-29T03:56:45.665Z,11.52
2023-10-29T03:59:13.308Z,11.54
2023-10-29T04:01:41.010Z,11.55
2023-10-29T04:04:09.314Z,11.63
2023-10-29T04:06:38.309Z,11.52
2023-10-29T04:09:06.642Z,11.87
2023-10-29T04:11:35.110Z,11.85
2023-10-29T04:14:02.829Z,11.96
2023-10-29T04:16:30.443Z,12.01
2023-10-29T04:18:58.062Z,12.01
2023-10-29T04:21:25.687Z,12.03
2023-10-29T04:23:54.735Z,12.05
2023-10-29T04:26:22.407Z,12.11
2023-10-29T04:28:50.148Z,12.14
2023-10-29T04:31:17.910Z,12.18
2023-10-29T04:33:46.340Z,12.18
2023-10-29T04:36:19.746Z,12.17
2023-10-29T04:38:47.465Z,12.22
2023-10-29T04:41:16.468Z,12.24
2023-10-29T04:43:44.104Z,12.26
2023-10-29T04:46:12.683Z,12.23
2023-10-29T04:48:40.998Z,12.22
2023-10-29T04:51:08.696Z,12.21
2023-10-29T04:53:36.334Z,12.23
2023-10-29T04:56:04.757Z,12.24
2023-10-29T04:58:33.997Z,12.37
2023-10-29T05:01:01.881Z,12.29
2023-10-29T05:03:29.649Z,12.31
2023-10-29T05:05:57.470Z,12.40
2023-10-29T05:08:25.172Z,12.31
2023-10-29T05:10:52.818Z,12.38
2023-10-29T05:13:20.398Z,12.35
2023-10-29T05:15:49.403Z,12.31
2023-10-29T05:18:17.045Z,12.17
2023-10-29T05:20:44.945Z,12.22
2023-10-29T05:23:12.666Z,12.16
2023-10-29T05:25:40.872Z,12.12
2023-10-29T05:28:08.496Z,12.13
2023-10-29T05:30:36.278Z,12.17
2023-10-29T05:33:05.430Z,12.20
2023-10-29T05:35:33.111Z,12.08
2023-10-29T05:38:01.025Z,12.07
2023-10-29T05:40:30.033Z,12.11
2023-10-29T05:42:57.673Z,12.15
2023-10-29T05:45:25.444Z,12.11
2023-10-29T05:47:53.135Z,12.06
2023-10-29T05:50:23.539Z,12.04
2023-10-29T05:52:51.187Z,11.87
2023-10-29T05:55:20.021Z,12.11
2023-10-29T05:57:47.766Z,12.12
2023-10-29T06:00:16.390Z,12.12
2023-10-29T06:02:44.208Z,12.08
2023-10-29T06:05:11.986Z,12.15
2023-10-29T06:07:44.860Z,12.16
2023-10-29T06:10:13.058Z,12.13
2023-10-29T06:12:40.686Z,12.18
2023-10-29T06:15:10.303Z,12.08
2023-10-29T06:17:38.210Z,12.07
2023-10-29T06:20:06.520Z,12.08
2023-10-29T06:22:34.692Z,12.05
2023-10-29T06:25:03.655Z,11.91
2023-10-29T06:27:31.291Z,11.76
2023-10-29T06:29:59.046Z,11.75
2023-10-29T06:32:26.746Z,11.54
2023-10-29T06:34:54.364Z,11.81
2023-10-29T06:37:22.019Z,11.73
2023-10-29T06:39:49.615Z,11.67
2023-10-29T06:42:18.608Z,11.68
2023-10-29T06:44:49.434Z,11.69
2023-10-29T06:47:17.225Z,11.64
2023-10-29T06:49:44.912Z,11.61
2023-10-29T06:52:12.576Z,11.64
2023-10-29T06:54:40.514Z,11.56
2023-10-29T06:57:08.261Z,11.66
2023-10-29T06:59:37.268Z,11.56
2023-10-29T07:02:04.835Z,11.54
2023-10-29T07:04:32.527Z,11.56
2023-10-29T07:07:00.355Z,11.61
2023-10-29T07:09:28.075Z,11.56
2023-10-29T07:11:57.021Z,11.61
2023-10-29T07:14:24.817Z,11.59
2023-10-29T07:16:53.745Z,11.57
2023-10-29T07:19:21.410Z,11.56
2023-10-29T07:21:48.997Z,11.53
2023-10-29T07:24:16.665Z,11.56
2023-10-29T07:26:44.410Z,11.63
2023-10-29T07:29:12.764Z,11.61
2023-10-29T07:31:40.364Z,11.61
2023-10-29T07:34:09.547Z,11.80
2023-10-29T07:36:37.242Z,11.64
2023-10-29T07:39:05.106Z,11.75
2023-10-29T07:41:32.943Z,11.66
2023-10-29T07:44:00.616Z,11.76
2023-10-29T07:46:28.206Z,11.72
2023-10-29T07:48:56.536Z,11.72
2023-10-29T07:51:25.504Z,11.72
2023-10-29T07:53:53.155Z,11.76
2023-10-29T07:56:22.115Z,11.72
2023-10-29T07:58:50.074Z,11.77
2023-10-29T08:01:18.473Z,11.79
2023-10-29T08:03:47.179Z,11.87
2023-10-29T08:06:15.199Z,12.00
2023-10-29T08:08:44.226Z,12.02
2023-10-29T08:11:18.968Z,12.14
2023-10-29T08:13:46.679Z,12.06
2023-10-29T08:16:14.817Z,12.11
2023-10-29T08:18:42.810Z,12.04
2023-10-29T08:21:10.610Z,12.15
2023-10-29T08:23:38.523Z,12.03
2023-10-29T08:26:07.650Z,12.03
2023-10-29T08:28:37.308Z,11.99
2023-10-29T08:31:05.483Z,11.97
2023-10-29T08:33:33.510Z,11.96
2023-10-29T08:36:01.267Z,12.05
2023-10-29T08:38:29.133Z,12.09
2023-10-29T08:40:57.266Z,12.06
2023-10-29T08:43:26.887Z,12.03
2023-10-29T08:45:55.304Z,12.00
2023-10-29T08:48:23.443Z,11.96
2023-10-29T08:50:51.186Z,12.00
2023-10-29T08:53:18.968Z,12.03
2023-10-29T08:55:46.970Z,12.15
2023-10-29T08:58:14.584Z,12.14
2023-10-29T09:00:46.791Z,12.08
2023-10-29T09:03:15.825Z,12.14
2023-10-29T09:05:44.686Z,12.19
2023-10-29T09:08:12.963Z,12.16
2023-10-29T09:10:44.426Z,12.31
2023-10-29T09:13:12.268Z,12.36
2023-10-29T09:15:39.982Z,12.37
2023-10-29T09:18:11.353Z,12.37
2023-10-29T09:20:40.088Z,12.46
2023-10-29T09:23:07.870Z,12.46
2023-10-29T09:25:35.484Z,12.46
2023-10-29T09:28:06.172Z,12.47
2023-10-29T09:30:34.149Z,12.52
2023-10-29T09:33:02.642Z,12.62
2023-10-29T09:35:32.010Z,12.64
2023-10-29T09:37:59.742Z,12.57
2023-10-29T09:40:27.405Z,12.54
2023-10-29T09:42:55.764Z,12.64
2023-10-29T09:45:25.002Z,12.82
2023-10-29T09:47:53.970Z,12.67
2023-10-29T09:50:22.945Z,12.73
2023-10-29T09:52:52.312Z,12.64
2023-10-29T09:55:20.209Z,12.58
2023-10-29T09:57:47.942Z,12.57
2023-10-29T10:00:16.519Z,12.57
2023-10-29T10:02:53.865Z,12.54
2023-10-29T10:05:22.566Z,12.51
2023-10-29T10:07:50.530Z,12.40
2023-10-29T10:10:20.653Z,12.60
2023-10-29T10:12:49.277Z,12.83
2023-10-29T10:15:17.763Z,12.82
2023-10-29T10:17:50.254Z,12.89
2023-10-29T10:20:21.827Z,12.78
2023-10-29T10:22:56.955Z,12.66
2023-10-29T10:25:26.422Z,12.66
2023-10-29T10:27:54.943Z,12.71
2023-10-29T10:30:26.280Z,12.79
2023-10-29T10:32:54.170Z,12.85
2023-10-29T10:35:22.039Z,13.05
2023-10-29T10:37:56.232Z,13.29
2023-10-29T10:40:24.455Z,13.55
2023-10-29T10:42:56.927Z,13.47
2023-10-29T10:45:27.567Z,13.54
2023-10-29T10:47:57.157Z,13.49
2023-10-29T10:50:25.157Z,13.42
2023-10-29T10:52:53.357Z,13.40
2023-10-29T10:55:41.392Z,13.50
2023-10-29T10:58:14.362Z,13.68
2023-10-29T11:00:42.347Z,13.66
2023-10-29T11:03:25.136Z,13.43
2023-10-29T11:05:54.122Z,13.35
2023-10-29T11:08:22.460Z,13.45
2023-10-29T11:10:50.168Z,13.38
2023-10-29T11:13:22.456Z,13.38
2023-10-29T11:15:50.517Z,13.48
2023-10-29T11:18:28.343Z,13.51
2023-10-29T11:21:00.825Z,13.63
2023-10-29T11:23:29.218Z,13.56
2023-10-29T11:26:15.661Z,13.45
2023-10-29T11:28:46.184Z,13.51
2023-10-29T11:31:14.760Z,13.48
2023-10-29T11:33:43.755Z,13.45
2023-10-29T11:36:39.154Z,13.33
2023-10-29T11:39:39.677Z,13.33
2023-10-29T11:42:25.914Z,13.23
2023-10-29T11:45:22.810Z,13.30
2023-10-29T11:48:08.184Z,13.30
2023-10-29T11:50:36.821Z,13.48
2023-10-29T11:53:04.727Z,13.55
2023-10-29T11:55:39.460Z,13.51
2023-10-29T11:58:07.688Z,13.50
2023-10-29T12:00:40.725Z,13.15
2023-10-29T12:03:09.708Z,13.28
2023-10-29T12:05:38.006Z,13.26
2023-10-29T12:08:06.293Z,13.32
2023-10-29T12:10:34.766Z,13.48
2023-10-29T12:13:02.506Z,13.49
2023-10-29T12:15:30.303Z,13.49
2023-10-29T12:17:59.468Z,13.83
2023-10-29T12:20:30.157Z,13.68
2023-10-29T12:22:58.745Z,13.38
2023-10-29T12:25:26.781Z,13.23
2023-10-29T12:27:54.974Z,13.34
2023-10-29T12:30:35.179Z,13.38
2023-10-29T12:33:23.733Z,13.30
2023-10-29T12:35:53.661Z,13.20
2023-10-29T12:38:21.844Z,13.36
2023-10-29T12:41:06.666Z,13.38
2023-10-29T12:43:38.408Z,13.33
2023-10-29T12:46:06.878Z,13.55
2023-10-29T12:48:36.458Z,13.59
2023-10-29T12:51:04.443Z,13.50
2023-10-29T12:53:33.295Z,13.48
2023-10-29T12:56:01.735Z,13.56
2023-10-29T12:58:30.423Z,13.65
2023-10-29T13:01:01.695Z,13.73
2023-10-29T13:03:29.480Z,13.65
2023-10-29T13:05:59.737Z,13.86
2023-10-29T13:08:27.475Z,13.73
2023-10-29T13:10:55.340Z,13.80
2023-10-29T13:13:24.874Z,13.55
2023-10-29T13:15:53.147Z,13.55
2023-10-29T13:18:21.194Z,13.31
2023-10-29T13:20:49.392Z,13.43
2023-10-29T13:23:18.484Z,13.30
2023-10-29T13:25:46.095Z,13.25
2023-10-29T13:28:13.766Z,13.32
2023-10-29T13:30:41.555Z,13.45
2023-10-29T13:33:10.735Z,13.34
2023-10-29T13:35:39.987Z,13.25
2023-10-29T13:38:09.680Z,13.28
2023-10-29T13:40:40.304Z,13.30
2023-10-29T13:43:08.187Z,13.30
2023-10-29T13:45:35.811Z,13.22
2023-10-29T13:48:05.560Z,13.26
2023-10-29T13:50:33.406Z,13.13
2023-10-29T13:53:01.086Z,13.11
2023-10-29T13:55:28.653Z,13.10
2023-10-29T13:58:00.060Z,12.96
2023-10-29T14:00:27.830Z,12.97
2023-10-29T14:02:58.102Z,13.10
2023-10-29T14:05:26.250Z,13.02
2023-10-29T14:07:55.457Z,12.98
2023-10-29T14:10:23.719Z,12.95
2023-10-29T14:12:51.358Z,12.86
2023-10-29T14:15:20.505Z,12.74
2023-10-29T14:17:48.211Z,12.77
2023-10-29T14:20:15.968Z,12.81
2023-10-29T14:22:43.872Z,12.78
2023-10-29T14:25:11.839Z,12.82
2023-10-29T14:27:39.519Z,13.05
2023-10-29T14:30:08.147Z,13.00
2023-10-29T14:32:37.447Z,12.86
2023-10-29T14:35:05.832Z,12.81
2023-10-29T14:37:33.532Z,12.91
2023-10-29T14:40:01.208Z,12.82
2023-10-29T14:42:30.057Z,12.88
2023-10-29T14:44:57.802Z,12.77
2023-10-29T14:47:25.476Z,12.74
2023-10-29T14:49:54.499Z,12.66
2023-10-29T14:52:22.275Z,12.62
2023-10-29T14:54:50.247Z,12.65
2023-10-29T14:57:29.013Z,12.68
2023-10-29T14:59:57.626Z,12.56
2023-10-29T15:02:25.523Z,12.49
2023-10-29T15:04:56.570Z,12.50
2023-10-29T15:07:24.285Z,12.38
2023-10-29T15:09:52.405Z,12.47
2023-10-29T15:12:20.575Z,12.44
2023-10-29T15:14:49.033Z,12.26
2023-10-29T15:17:18.094Z,12.35
2023-10-29T15:19:45.777Z,12.45
2023-10-29T15:22:14.839Z,12.60
2023-10-29T15:24:42.522Z,12.36
2023-10-29T15:27:10.278Z,12.35
2023-10-29T15:29:37.953Z,12.19
2023-10-29T15:32:05.784Z,12.10
2023-10-29T15:34:33.510Z,12.08
2023-10-29T15:37:01.173Z,12.07
2023-10-29T15:39:31.508Z,11.99
2023-10-29T15:42:00.227Z,12.03
2023-10-29T15:44:27.880Z,11.99
2023-10-29T15:46:55.519Z,11.97
2023-10-29T15:49:24.619Z,11.98
2023-10-29T15:51:52.205Z,11.94
2023-10-29T15:54:21.639Z,11.93
2023-10-29T15:56:51.964Z,11.90
2023-10-29T15:59:21.112Z,11.91
2023-10-29T16:01:48.761Z,11.75
2023-10-29T16:04:16.936Z,11.74
2023-10-29T16:06:44.721Z,11.75
2023-10-29T16:09:12.781Z,11.70
2023-10-29T16:11:40.492Z,11.71
2023-10-29T16:14:09.558Z,11.71
2023-10-29T16:16:37.376Z,11.70
2023-10-29T16:19:05.514Z,11.66
2023-10-29T16:21:33.248Z,11.62
2023-10-29T16:24:00.899Z,11.62
2023-10-29T16:26:28.602Z,11.53
2023-10-29T16:28:56.346Z,11.54
2023-10-29T16:31:25.390Z,11.53
2023-10-29T16:33:53.204Z,11.50
2023-10-29T16:36:20.913Z,11.57
2023-10-29T16:38:48.714Z,11.52
2023-10-29T16:41:17.158Z,11.59
2023-10-29T16:43:48.410Z,11.63
2023-10-29T16:46:18.827Z,11.62
2023-10-29T16:48:48.058Z,11.64
2023-10-29T16:51:15.890Z,11.79
2023-10-29T16:53:43.545Z,11.75
2023-10-29T16:56:12.609Z,11.76
2023-10-29T16:58:41.487Z,11.69
2023-10-29T17:01:11.863Z,11.74
2023-10-29T17:03:39.663Z,11.77
2023-10-29T17:06:09.105Z,11.81
2023-10-29T17:08:36.815Z,11.89
2023-10-29T17:11:04.666Z,11.64
2023-10-29T17:13:32.294Z,11.32
2023-10-29T17:16:00.542Z,11.20
2023-10-29T17:18:28.598Z,11.12
2023-10-29T17:20:58.123Z,11.07
2023-10-29T17:23:27.628Z,11.06
2023-10-29T17:25:56.120Z,11.00
2023-10-29T17:28:23.751Z,11.05
2023-10-29T17:30:51.400Z,11.07
2023-10-29T17:33:19.642Z,11.13
2023-10-29T17:35:47.455Z,11.14
2023-10-29T17:38:15.076Z,11.19
2023-10-29T17:40:44.142Z,11.19
2023-10-29T17:43:12.305Z,11.26
2023-10-29T17:45:40.058Z,11.29
2023-10-29T17:48:08.135Z,11.20
2023-10-29T17:50:36.031Z,11.24
2023-10-29T17:53:03.985Z,11.05
2023-10-29T17:55:31.676Z,10.94
2023-10-29T17:58:01.021Z,10.93
2023-10-29T18:00:29.611Z,10.93
2023-10-29T18:02:57.567Z,10.89
2023-10-29T18:05:25.361Z,10.81
2023-10-29T18:07:53.100Z,10.75
2023-10-29T18:10:20.767Z,10.75
2023-10-29T18:12:48.356Z,10.67
2023-10-29T18:15:17.480Z,10.78
2023-10-29T18:17:45.172Z,10.76
2023-10-29T18:20:13.595Z,10.64
2023-10-29T18:22:41.266Z,10.78
2023-10-29T18:25:09.430Z,10.63
2023-10-29T18:27:39.581Z,10.63
2023-10-29T18:30:09.228Z,10.37
2023-10-29T18:32:38.366Z,10.45
2023-10-29T18:35:06.371Z,10.46
2023-10-29T18:37:34.070Z,10.51
2023-10-29T18:40:01.781Z,10.63
2023-10-29T18:42:29.417Z,10.57
2023-10-29T18:44:57.138Z,10.60
2023-10-29T18:47:24.947Z,10.66
2023-10-29T18:49:54.068Z,10.67
2023-10-29T18:52:21.713Z,10.80
2023-10-29T18:54:49.439Z,10.84
2023-10-29T18:57:19.050Z,10.92
2023-10-29T18:59:46.894Z,10.97
2023-10-29T19:02:14.641Z,10.80
2023-10-29T19:04:42.620Z,10.75
2023-10-29T19:07:11.672Z,10.74
2023-10-29T19:09:39.440Z,10.69
2023-10-29T19:12:07.345Z,10.62
2023-10-29T19:14:37.171Z,10.65
2023-10-29T19:17:09.501Z,10.69
2023-10-29T19:19:37.912Z,10.57
2023-10-29T19:22:05.607Z,10.61
2023-10-29T19:24:34.745Z,10.55
2023-10-29T19:27:02.730Z,10.48
2023-10-29T19:29:30.432Z,10.43
2023-10-29T19:31:58.838Z,10.45
2023-10-29T19:34:28.364Z,10.15
2023-10-29T19:36:56.063Z,10.02
2023-10-29T19:39:23.888Z,10.36
2023-10-29T19:41:53.012Z,10.37
2023-10-29T19:44:23.337Z,10.40
2023-10-29T19:46:52.186Z,10.38
2023-10-29T19:49:20.313Z,10.20
2023-10-29T19:51:48.028Z,10.53
2023-10-29T19:54:16.136Z,10.47
2023-10-29T19:56:43.786Z,10.48
2023-10-29T19:59:12.854Z,10.45
2023-10-29T20:01:40.506Z,10.46
2023-10-29T20:04:08.353Z,10.50
2023-10-29T20:06:36.130Z,10.50
2023-10-29T20:09:04.353Z,10.48
2023-10-29T20:11:31.994Z,10.55
2023-10-29T20:14:00.616Z,10.56
2023-10-29T20:16:29.841Z,10.59
2023-10-29T20:18:58.758Z,10.57
2023-10-29T20:21:27.967Z,10.58
2023-10-29T20:23:55.813Z,10.58
2023-10-29T20:26:25.123Z,10.58
2023-10-29T20:28:53.287Z,10.68
2023-10-29T20:31:21.773Z,10.74
2023-10-29T20:33:51.476Z,10.80
2023-10-29T20:36:21.567Z,10.73
2023-10-29T20:38:49.381Z,10.74
2023-10-29T20:41:17.136Z,10.71
2023-10-29T20:43:44.848Z,10.75
2023-10-29T20:46:12.617Z,10.76
2023-10-29T20:48:40.398Z,10.78
2023-10-29T20:51:09.488Z,10.81
2023-10-29T20:53:37.173Z,10.76
2023-10-29T20:56:06.409Z,10.69
2023-10-29T20:58:34.025Z,10.72
2023-10-29T21:01:03.525Z,10.68
2023-10-29T21:03:31.278Z,10.72
2023-10-29T21:05:59.542Z,10.63
2023-10-29T21:08:29.033Z,10.71
2023-10-29T21:11:02.184Z,10.71
2023-10-29T21:13:29.959Z,10.78
2023-10-29T21:16:01.130Z,10.76
2023-10-29T21:18:30.357Z,10.64
2023-10-29T21:20:58.491Z,10.58
2023-10-29T21:23:32.029Z,10.62
2023-10-29T21:26:00.263Z,10.63
2023-10-29T21:28:27.958Z,10.55
2023-10-29T21:30:55.886Z,10.54
2023-10-29T21:33:23.786Z,10.50
2023-10-29T21:35:52.095Z,10.47
2023-10-29T21:38:19.889Z,10.41
2023-10-29T21:40:49.018Z,10.46
2023-10-29T21:43:16.798Z,10.47
2023-10-29T21:45:44.533Z,10.45
2023-10-29T21:48:12.393Z,10.48
2023-10-29T21:50:42.153Z,10.50
2023-10-29T21:53:10.416Z,10.38
2023-10-29T21:55:38.226Z,10.49
2023-10-29T21:58:10.148Z,10.35
2023-10-29T22:00:38.122Z,10.40
2023-10-29T22:03:06.388Z,10.33
2023-10-29T22:05:34.180Z,10.35
2023-10-29T22:08:02.002Z,10.40
2023-10-29T22:10:29.771Z,10.36
2023-10-29T22:12:57.419Z,10.35
2023-10-29T22:15:29.162Z,10.36
2023-10-29T22:17:57.284Z,10.34
2023-10-29T22:20:25.443Z,10.31
2023-10-29T22:22:53.214Z,10.38
2023-10-29T22:25:20.908Z,10.43
2023-10-29T22:27:48.550Z,10.31
2023-10-29T22:30:16.271Z,10.35
2023-10-29T22:32:45.698Z,10.27
2023-10-29T22:35:13.460Z,10.23
2023-10-29T22:37:41.161Z,10.23
2023-10-29T22:40:09.515Z,10.28
2023-10-29T22:42:37.299Z,10.25
2023-10-29T22:45:05.208Z,10.31
2023-10-29T22:47:32.946Z,10.28
2023-10-29T22:50:02.409Z,10.28
2023-10-29T22:52:30.019Z,10.16
2023-10-29T22:54:57.648Z,10.10
2023-10-29T22:57:25.493Z,10.11
2023-10-29T22:59:53.224Z,10.04
2023-10-29T23:02:20.895Z,10.21
2023-10-29T23:04:48.551Z,10.15
2023-10-29T23:07:17.615Z,10.02
2023-10-29T23:09:45.242Z,9.99
2023-10-29T23:12:13.163Z,10.06
2023-10-29T23:14:40.930Z,10.09
2023-10-29T23:17:08.726Z,10.10
2023-10-29T23:19:36.513Z,10.07
2023-10-29T23:22:04.731Z,10.05
2023-10-29T23:24:36.591Z,10.00
2023-10-29T23:27:06.028Z,9.95
2023-10-29T23:29:34.374Z,9.93
2023-10-29T23:32:03.302Z,9.82
2023-10-29T23:34:31.182Z,9.80
2023-10-29T23:36:58.818Z,9.76
2023-10-29T23:39:28.292Z,9.72
2023-10-29T23:41:57.736Z,9.65
2023-10-29T23:44:25.415Z,9.58
2023-10-29T23:46:53.068Z,9.61
2023-10-29T23:49:20.728Z,9.64
2023-10-29T23:51:48.436Z,9.59
2023-10-29T23:54:16.114Z,9.51
2023-10-29T23:56:43.739Z,9.51
2023-10-29T23:59:12.679Z,9.54
